createdAt,value
2022-08-07T00:00:41.160Z,0
2022-08-07T00:01:50.308Z,0
2022-08-07T00:02:59.481Z,0
2022-08-07T00:04:08.654Z,0
2022-08-07T00:05:17.839Z,0
2022-08-07T00:06:26.998Z,0
2022-08-07T00:07:36.167Z,0
2022-08-07T00:08:45.355Z,0
2022-08-07T00:09:54.514Z,0
2022-08-07T00:11:03.713Z,0
2022-08-07T00:12:12.850Z,0
2022-08-07T00:13:22.029Z,0
2022-08-07T00:14:30.240Z,0
2022-08-07T00:15:39.388Z,0
2022-08-07T00:16:47.590Z,0
2022-08-07T00:17:55.784Z,0
2022-08-07T00:19:04.947Z,0
2022-08-07T00:21:22.319Z,0
2022-08-07T00:22:30.505Z,0
2022-08-07T00:23:38.702Z,0
2022-08-07T00:24:47.887Z,0
2022-08-07T00:25:57.058Z,0
2022-08-07T00:27:06.221Z,0
2022-08-07T00:28:15.392Z,0
2022-08-07T00:29:24.558Z,0
2022-08-07T00:30:33.738Z,0
2022-08-07T00:31:42.931Z,0
2022-08-07T00:32:52.084Z,0
2022-08-07T00:34:01.248Z,0
2022-08-07T00:35:10.433Z,0
2022-08-07T00:36:19.592Z,0
2022-08-07T00:37:28.767Z,0
2022-08-07T00:38:36.983Z,0
2022-08-07T00:39:46.135Z,0
2022-08-07T00:40:55.310Z,0
2022-08-07T00:42:04.492Z,0
2022-08-07T00:43:13.651Z,0
2022-08-07T00:44:22.833Z,0
2022-08-07T00:45:31.995Z,0
2022-08-07T00:46:41.180Z,0
2022-08-07T00:47:50.352Z,0
2022-08-07T00:48:58.539Z,0
2022-08-07T00:50:07.716Z,0
2022-08-07T00:51:16.873Z,0
2022-08-07T00:52:26.067Z,0
2022-08-07T00:53:35.224Z,0
2022-08-07T00:54:44.422Z,0
2022-08-07T00:55:53.574Z,0
2022-08-07T00:57:02.746Z,0
2022-08-07T00:58:11.916Z,0
2022-08-07T00:59:21.099Z,0
2022-08-07T01:00:30.269Z,0
2022-08-07T01:01:39.420Z,0
2022-08-07T01:02:48.650Z,0
2022-08-07T01:03:56.795Z,0
2022-08-07T01:05:05.964Z,0
2022-08-07T01:06:15.162Z,0
2022-08-07T01:07:24.323Z,0
2022-08-07T01:08:32.522Z,0
2022-08-07T01:09:40.699Z,0
2022-08-07T01:10:49.886Z,0
2022-08-07T01:11:59.040Z,0
2022-08-07T01:13:08.239Z,0
2022-08-07T01:14:17.375Z,0
2022-08-07T01:15:26.564Z,0
2022-08-07T01:16:35.723Z,0
2022-08-07T01:17:44.891Z,0
2022-08-07T01:18:54.079Z,0
2022-08-07T01:20:03.248Z,0
2022-08-07T01:21:12.423Z,0
2022-08-07T01:22:21.589Z,0
2022-08-07T01:23:30.791Z,0
2022-08-07T01:24:38.980Z,0
2022-08-07T01:25:47.160Z,0
2022-08-07T01:26:56.316Z,0
2022-08-07T01:28:05.518Z,0
2022-08-07T01:29:14.688Z,0
2022-08-07T01:30:23.844Z,0
2022-08-07T01:31:33.024Z,0
2022-08-07T01:32:42.195Z,0
2022-08-07T01:33:51.371Z,0
2022-08-07T01:35:00.545Z,0
2022-08-07T01:36:09.732Z,0
2022-08-07T01:37:18.892Z,0
2022-08-07T01:38:28.055Z,0
2022-08-07T01:39:37.216Z,0
2022-08-07T01:40:45.407Z,0
2022-08-07T01:41:54.591Z,0
2022-08-07T01:43:03.800Z,0
2022-08-07T01:44:12.946Z,0
2022-08-07T01:45:22.095Z,0
2022-08-07T01:46:31.268Z,0
2022-08-07T01:47:40.443Z,0
2022-08-07T01:48:49.612Z,0
2022-08-07T01:49:58.792Z,0
2022-08-07T01:51:07.961Z,0
2022-08-07T01:52:17.133Z,0
2022-08-07T01:53:26.307Z,0
2022-08-07T01:54:35.476Z,0
2022-08-07T01:55:43.665Z,0
2022-08-07T01:56:52.847Z,0
2022-08-07T01:58:02.013Z,0
2022-08-07T01:59:11.197Z,0
2022-08-07T02:00:19.395Z,0
2022-08-07T02:01:27.568Z,0
2022-08-07T02:02:36.742Z,0
2022-08-07T02:03:44.939Z,0
2022-08-07T02:04:53.128Z,0
2022-08-07T02:06:02.292Z,0
2022-08-07T02:07:11.493Z,0
2022-08-07T02:08:20.639Z,0
2022-08-07T02:09:29.807Z,0
2022-08-07T02:10:39.010Z,0
2022-08-07T02:11:48.162Z,0
2022-08-07T02:12:57.329Z,0
2022-08-07T02:14:06.502Z,0
2022-08-07T02:15:15.673Z,0
2022-08-07T02:16:24.849Z,0
2022-08-07T02:17:34.018Z,0
2022-08-07T02:18:43.196Z,0
2022-08-07T02:19:51.383Z,0
2022-08-07T02:21:00.569Z,0
2022-08-07T02:22:09.727Z,0
2022-08-07T02:23:18.918Z,0
2022-08-07T02:24:28.069Z,0
2022-08-07T02:25:37.250Z,0
2022-08-07T02:26:46.429Z,0
2022-08-07T02:27:55.606Z,0
2022-08-07T02:29:04.784Z,0
2022-08-07T02:30:13.933Z,0
2022-08-07T02:31:23.133Z,0
2022-08-07T02:32:32.303Z,0
2022-08-07T02:33:41.447Z,0
2022-08-07T02:34:49.664Z,0
2022-08-07T02:35:57.844Z,0
2022-08-07T02:37:07.022Z,0
2022-08-07T02:38:15.208Z,0
2022-08-07T02:39:24.389Z,0
2022-08-07T02:40:32.572Z,0
2022-08-07T02:41:41.745Z,0
2022-08-07T02:42:50.911Z,0
2022-08-07T02:44:00.122Z,0
2022-08-07T02:45:09.257Z,0
2022-08-07T02:46:18.427Z,0
2022-08-07T02:47:27.616Z,0
2022-08-07T02:48:36.793Z,0
2022-08-07T02:49:45.950Z,0
2022-08-07T02:50:55.131Z,0
2022-08-07T02:52:04.314Z,0
2022-08-07T02:53:13.483Z,0
2022-08-07T02:54:22.638Z,0
2022-08-07T02:55:30.834Z,0
2022-08-07T02:56:40.001Z,0
2022-08-07T02:57:49.177Z,0
2022-08-07T02:58:58.361Z,0
2022-08-07T03:00:07.524Z,0
2022-08-07T03:01:16.693Z,0
2022-08-07T03:02:25.882Z,0
2022-08-07T03:03:35.035Z,0
2022-08-07T03:04:44.235Z,0
2022-08-07T03:05:53.391Z,0
2022-08-07T03:07:02.556Z,0
2022-08-07T03:08:11.721Z,0
2022-08-07T03:09:20.905Z,0
2022-08-07T03:10:29.126Z,0
2022-08-07T03:11:38.265Z,0
2022-08-07T03:12:47.452Z,0
2022-08-07T03:13:56.605Z,0
2022-08-07T03:15:05.781Z,0
2022-08-07T03:16:14.975Z,0
2022-08-07T03:17:24.131Z,0
2022-08-07T03:18:33.297Z,3
2022-08-07T03:19:42.475Z,3
2022-08-07T03:20:51.644Z,3
2022-08-07T03:22:00.811Z,4
2022-08-07T03:23:10.009Z,0
2022-08-07T03:24:19.164Z,0
2022-08-07T03:25:27.374Z,4
2022-08-07T03:26:36.529Z,4
2022-08-07T03:27:45.702Z,1
2022-08-07T03:28:54.887Z,1
2022-08-07T03:30:04.052Z,1
2022-08-07T03:31:13.207Z,5
2022-08-07T03:32:22.392Z,1
2022-08-07T03:33:31.568Z,3
2022-08-07T03:34:40.737Z,3
2022-08-07T03:35:49.908Z,3
2022-08-07T03:36:59.091Z,6
2022-08-07T03:38:08.261Z,19
2022-08-07T03:39:17.427Z,28
2022-08-07T03:40:25.622Z,6
2022-08-07T03:41:34.782Z,9
2022-08-07T03:42:43.962Z,9
2022-08-07T03:43:53.128Z,22
2022-08-07T03:45:02.310Z,27
2022-08-07T03:46:11.480Z,19
2022-08-07T03:47:20.650Z,33
2022-08-07T03:48:29.821Z,38
2022-08-07T03:49:38.993Z,43
2022-08-07T03:50:48.165Z,53
2022-08-07T03:51:57.347Z,63
2022-08-07T03:53:06.512Z,68
2022-08-07T03:54:15.694Z,82
2022-08-07T03:55:23.881Z,92
2022-08-07T03:56:33.044Z,102
2022-08-07T03:57:42.218Z,120
2022-08-07T03:58:51.400Z,156
2022-08-07T04:00:00.578Z,158
2022-08-07T04:01:09.747Z,172
2022-08-07T04:02:18.938Z,212
2022-08-07T04:03:28.110Z,231
2022-08-07T04:04:37.280Z,263
2022-08-07T04:05:46.435Z,283
2022-08-07T04:06:55.634Z,306
2022-08-07T04:08:04.775Z,346
2022-08-07T04:09:13.955Z,370
2022-08-07T04:10:22.161Z,394
2022-08-07T04:11:31.325Z,414
2022-08-07T04:12:40.505Z,455
2022-08-07T04:13:49.659Z,513
2022-08-07T04:14:58.849Z,534
2022-08-07T04:16:08.003Z,557
2022-08-07T04:17:17.184Z,620
2022-08-07T04:18:26.356Z,636
2022-08-07T04:19:35.520Z,681
2022-08-07T04:20:44.699Z,731
2022-08-07T04:21:53.879Z,768
2022-08-07T04:23:03.047Z,806
2022-08-07T04:24:12.204Z,831
2022-08-07T04:25:20.402Z,881
2022-08-07T04:26:29.581Z,915
2022-08-07T04:27:38.750Z,934
2022-08-07T04:28:47.916Z,948
2022-08-07T04:29:57.101Z,977
2022-08-07T04:31:06.267Z,984
2022-08-07T04:32:15.437Z,1023
2022-08-07T04:33:24.630Z,1059
2022-08-07T04:34:33.780Z,1090
2022-08-07T04:35:42.976Z,1124
2022-08-07T04:36:52.182Z,1151
2022-08-07T04:38:01.302Z,1181
2022-08-07T04:39:10.479Z,1224
2022-08-07T04:40:18.670Z,1274
2022-08-07T04:41:27.865Z,1289
2022-08-07T04:42:37.016Z,1299
2022-08-07T04:43:46.192Z,1348
2022-08-07T04:44:55.365Z,1427
2022-08-07T04:46:04.536Z,1522
2022-08-07T04:47:13.728Z,1539
2022-08-07T04:48:22.883Z,1513
2022-08-07T04:49:32.044Z,1499
2022-08-07T04:50:41.228Z,1520
2022-08-07T04:51:50.391Z,1595
2022-08-07T04:52:59.572Z,1609
2022-08-07T04:54:08.741Z,1604
2022-08-07T04:55:16.927Z,1612
2022-08-07T04:56:26.108Z,1601
2022-08-07T04:57:35.279Z,1608
2022-08-07T04:58:44.466Z,1631
2022-08-07T04:59:53.632Z,1627
2022-08-07T05:01:02.806Z,1644
2022-08-07T05:02:11.968Z,1628
2022-08-07T05:03:21.157Z,1630
2022-08-07T05:04:30.339Z,1717
2022-08-07T05:05:39.486Z,1758
2022-08-07T05:06:48.670Z,1660
2022-08-07T05:07:57.854Z,1705
2022-08-07T05:09:07.015Z,1787
2022-08-07T05:10:15.199Z,1779
2022-08-07T05:11:24.374Z,1828
2022-08-07T05:12:33.546Z,1843
2022-08-07T05:13:42.720Z,1829
2022-08-07T05:14:51.883Z,1821
2022-08-07T05:16:01.054Z,1901
2022-08-07T05:17:10.249Z,1980
2022-08-07T05:18:19.409Z,2019
2022-08-07T05:19:28.570Z,2117
2022-08-07T05:20:37.769Z,2159
2022-08-07T05:21:46.925Z,2123
2022-08-07T05:22:56.105Z,2139
2022-08-07T05:24:05.311Z,2189
2022-08-07T05:25:13.450Z,2194
2022-08-07T05:26:22.623Z,2242
2022-08-07T05:27:30.820Z,2274
2022-08-07T05:28:39.020Z,2293
2022-08-07T05:29:48.193Z,2305
2022-08-07T05:30:56.382Z,2367
2022-08-07T05:32:04.580Z,2380
2022-08-07T05:33:13.744Z,2426
2022-08-07T05:34:22.961Z,2453
2022-08-07T05:35:32.080Z,2484
2022-08-07T05:36:41.264Z,2521
2022-08-07T05:37:50.435Z,2570
2022-08-07T05:38:59.599Z,2613
2022-08-07T05:40:08.765Z,2643
2022-08-07T05:41:17.943Z,2661
2022-08-07T05:42:27.111Z,2684
2022-08-07T05:43:36.279Z,2717
2022-08-07T05:44:45.476Z,2739
2022-08-07T05:45:54.641Z,2764
2022-08-07T05:47:02.832Z,2787
2022-08-07T05:48:12.021Z,2811
2022-08-07T05:49:21.173Z,2888
2022-08-07T05:50:30.334Z,2855
2022-08-07T05:51:39.527Z,2881
2022-08-07T05:52:48.700Z,2877
2022-08-07T05:53:57.863Z,2899
2022-08-07T05:55:07.046Z,2909
2022-08-07T05:56:16.208Z,2976
2022-08-07T05:57:25.382Z,2989
2022-08-07T05:58:34.549Z,3000
2022-08-07T05:59:43.744Z,3025
2022-08-07T06:00:52.905Z,3050
2022-08-07T06:02:01.090Z,3061
2022-08-07T06:03:10.267Z,3057
2022-08-07T06:04:19.449Z,3103
2022-08-07T06:05:28.611Z,3221
2022-08-07T06:06:37.783Z,3150
2022-08-07T06:07:46.939Z,3127
2022-08-07T06:08:56.139Z,3153
2022-08-07T06:10:05.317Z,3191
2022-08-07T06:11:14.467Z,3188
2022-08-07T06:12:23.643Z,3210
2022-08-07T06:13:32.809Z,3236
2022-08-07T06:14:41.992Z,3260
2022-08-07T06:15:51.156Z,3256
2022-08-07T06:16:59.362Z,3301
2022-08-07T06:18:08.543Z,3304
2022-08-07T06:19:17.693Z,3320
2022-08-07T06:20:26.882Z,3328
2022-08-07T06:21:36.038Z,3343
2022-08-07T06:22:45.196Z,3368
2022-08-07T06:23:54.376Z,3389
2022-08-07T06:25:03.548Z,3422
2022-08-07T06:26:12.719Z,3437
2022-08-07T06:27:21.897Z,3452
2022-08-07T06:28:31.065Z,3458
2022-08-07T06:29:40.266Z,3478
2022-08-07T06:30:49.410Z,3489
2022-08-07T06:31:57.612Z,3508
2022-08-07T06:33:06.760Z,3519
2022-08-07T06:34:15.940Z,3547
2022-08-07T06:35:25.110Z,3537
2022-08-07T06:36:34.289Z,3560
2022-08-07T06:37:43.457Z,3563
2022-08-07T06:38:52.646Z,3590
2022-08-07T06:40:01.812Z,3585
2022-08-07T06:41:10.997Z,3607
2022-08-07T06:42:20.144Z,3627
2022-08-07T06:43:29.311Z,3633
2022-08-07T06:44:38.500Z,3600
2022-08-07T06:45:47.678Z,3674
2022-08-07T06:46:55.848Z,3661
2022-08-07T06:48:05.042Z,3684
2022-08-07T06:49:14.227Z,3719
2022-08-07T06:50:23.405Z,3713
2022-08-07T06:51:32.546Z,3723
2022-08-07T06:52:41.712Z,3747
2022-08-07T06:53:50.898Z,3737
2022-08-07T06:55:00.082Z,3740
2022-08-07T06:56:09.252Z,3774
2022-08-07T06:57:18.413Z,3748
2022-08-07T06:58:27.593Z,3810
2022-08-07T06:59:36.753Z,3821
2022-08-07T07:00:45.950Z,3831
2022-08-07T07:01:54.129Z,3838
2022-08-07T07:03:03.284Z,3843
2022-08-07T07:04:12.461Z,3877
2022-08-07T07:05:21.634Z,3903
2022-08-07T07:06:30.824Z,3918
2022-08-07T07:07:39.979Z,3928
2022-08-07T07:08:49.156Z,3942
2022-08-07T07:09:58.320Z,3972
2022-08-07T07:11:07.498Z,3926
2022-08-07T07:12:16.672Z,3905
2022-08-07T07:13:25.850Z,3946
2022-08-07T07:14:35.033Z,3951
2022-08-07T07:15:44.192Z,3974
2022-08-07T07:16:52.386Z,4011
2022-08-07T07:18:01.560Z,4016
2022-08-07T07:19:10.716Z,4038
2022-08-07T07:20:19.895Z,4014
2022-08-07T07:21:29.083Z,4062
2022-08-07T07:22:38.250Z,4031
2022-08-07T07:23:47.410Z,4074
2022-08-07T07:24:56.593Z,4063
2022-08-07T07:26:05.766Z,4087
2022-08-07T07:27:14.923Z,4087
2022-08-07T07:28:24.124Z,4117
2022-08-07T07:29:33.277Z,4098
2022-08-07T07:30:42.437Z,4112
2022-08-07T07:31:50.639Z,4123
2022-08-07T07:32:59.808Z,4158
2022-08-07T07:34:08.967Z,4139
2022-08-07T07:35:18.155Z,4162
2022-08-07T07:36:27.328Z,4130
2022-08-07T07:37:36.488Z,4187
2022-08-07T07:38:45.673Z,4197
2022-08-07T07:39:54.834Z,4209
2022-08-07T07:41:04.007Z,4202
2022-08-07T07:42:13.190Z,4210
2022-08-07T07:43:22.363Z,4215
2022-08-07T07:44:31.527Z,4267
2022-08-07T07:45:40.698Z,4251
2022-08-07T07:46:48.907Z,4241
2022-08-07T07:47:58.070Z,4272
2022-08-07T07:49:07.240Z,4269
2022-08-07T07:50:16.412Z,4300
2022-08-07T07:51:25.596Z,4285
2022-08-07T07:52:34.789Z,4320
2022-08-07T07:53:43.929Z,4329
2022-08-07T07:54:53.088Z,4365
2022-08-07T07:56:02.265Z,4325
2022-08-07T07:57:11.443Z,4397
2022-08-07T07:58:20.601Z,4399
2022-08-07T07:59:29.775Z,4387
2022-08-07T08:00:38.964Z,4409
2022-08-07T08:01:47.143Z,4417
2022-08-07T08:02:56.320Z,4422
2022-08-07T08:04:05.544Z,4436
2022-08-07T08:05:14.663Z,4434
2022-08-07T08:06:23.861Z,4493
2022-08-07T08:07:33.015Z,4474
2022-08-07T08:08:42.169Z,4495
2022-08-07T08:09:51.349Z,4497
2022-08-07T08:11:00.551Z,4494
2022-08-07T08:12:09.703Z,4537
2022-08-07T08:13:18.867Z,4547
2022-08-07T08:14:28.045Z,4527
2022-08-07T08:15:37.230Z,4557
2022-08-07T08:16:45.424Z,4595
2022-08-07T08:17:54.588Z,4603
2022-08-07T08:19:03.749Z,4594
2022-08-07T08:20:12.915Z,4585
2022-08-07T08:21:22.091Z,4570
2022-08-07T08:22:31.262Z,4592
2022-08-07T08:23:40.446Z,4609
2022-08-07T08:24:49.614Z,4631
2022-08-07T08:25:58.798Z,4608
2022-08-07T08:27:07.954Z,4634
2022-08-07T08:28:17.145Z,4677
2022-08-07T08:29:26.312Z,4622
2022-08-07T08:30:35.471Z,4674
2022-08-07T08:31:43.676Z,4698
2022-08-07T08:32:52.836Z,4707
2022-08-07T08:34:02.024Z,4691
2022-08-07T08:35:11.186Z,4703
2022-08-07T08:36:20.354Z,4695
2022-08-07T08:37:29.537Z,4646
2022-08-07T08:38:38.718Z,4689
2022-08-07T08:39:47.869Z,4677
2022-08-07T08:40:57.078Z,4708
2022-08-07T08:42:06.221Z,4762
2022-08-07T08:43:15.388Z,4741
2022-08-07T08:44:24.564Z,4740
2022-08-07T08:45:33.735Z,4801
2022-08-07T08:46:41.940Z,4796
2022-08-07T08:47:51.101Z,4808
2022-08-07T08:49:00.286Z,4813
2022-08-07T08:50:09.462Z,4827
2022-08-07T08:51:18.616Z,4873
2022-08-07T08:52:27.790Z,4852
2022-08-07T08:53:36.957Z,4742
2022-08-07T08:54:46.171Z,4892
2022-08-07T08:55:55.303Z,4885
2022-08-07T08:57:04.497Z,4903
2022-08-07T08:58:13.659Z,4896
2022-08-07T08:59:22.832Z,4937
2022-08-07T09:00:31.989Z,4976
2022-08-07T09:01:41.164Z,4989
2022-08-07T09:02:49.369Z,4985
2022-08-07T09:03:58.549Z,5002
2022-08-07T09:05:07.703Z,5032
2022-08-07T09:06:16.895Z,5067
2022-08-07T09:07:26.071Z,5068
2022-08-07T09:08:35.215Z,5077
2022-08-07T09:09:44.399Z,5133
2022-08-07T09:10:53.592Z,5152
2022-08-07T09:12:02.740Z,5111
2022-08-07T09:13:11.938Z,5134
2022-08-07T09:14:21.094Z,5135
2022-08-07T09:15:30.258Z,5072
2022-08-07T09:16:39.432Z,5244
2022-08-07T09:17:47.613Z,5210
2022-08-07T09:18:56.788Z,5210
2022-08-07T09:20:05.964Z,5243
2022-08-07T09:21:15.138Z,5283
2022-08-07T09:22:24.302Z,5261
2022-08-07T09:23:33.485Z,5243
2022-08-07T09:24:42.688Z,5238
2022-08-07T09:27:00.998Z,5380
2022-08-07T09:28:10.182Z,5458
2022-08-07T09:29:19.338Z,5423
2022-08-07T09:30:28.515Z,5367
2022-08-07T09:31:37.689Z,5412
2022-08-07T09:32:45.889Z,5434
2022-08-07T09:33:55.059Z,5462
2022-08-07T09:35:04.222Z,5462
2022-08-07T09:36:13.410Z,5547
2022-08-07T09:37:22.582Z,5557
2022-08-07T09:38:31.742Z,5611
2022-08-07T09:39:40.906Z,5651
2022-08-07T09:40:50.079Z,5717
2022-08-07T09:41:59.267Z,5773
2022-08-07T09:43:08.449Z,5639
2022-08-07T09:44:17.613Z,5741
2022-08-07T09:45:26.772Z,5729
2022-08-07T09:46:35.944Z,5836
2022-08-07T09:47:44.143Z,6004
2022-08-07T09:48:53.315Z,6097
2022-08-07T09:50:02.490Z,6248
2022-08-07T09:51:11.662Z,6146
2022-08-07T09:53:29.994Z,5797
2022-08-07T09:54:39.164Z,5945
2022-08-07T09:55:48.362Z,6037
2022-08-07T09:56:57.518Z,6106
2022-08-07T09:58:06.697Z,6027
2022-08-07T09:59:15.853Z,6001
2022-08-07T10:00:25.022Z,5960
2022-08-07T10:01:34.201Z,6081
2022-08-07T10:02:42.378Z,6172
2022-08-07T10:03:51.561Z,6127
2022-08-07T10:05:00.723Z,6047
2022-08-07T10:06:09.933Z,6151
2022-08-07T10:07:19.085Z,6247
2022-08-07T10:08:28.258Z,6307
2022-08-07T10:09:37.418Z,6465
2022-08-07T10:10:46.600Z,6565
2022-08-07T10:11:55.773Z,6565
2022-08-07T10:13:04.940Z,6495
2022-08-07T10:14:14.104Z,6486
2022-08-07T10:15:23.280Z,6638
2022-08-07T10:16:32.441Z,6793
2022-08-07T10:17:40.653Z,6770
2022-08-07T10:18:49.825Z,6586
2022-08-07T10:19:58.984Z,6816
2022-08-07T10:21:08.177Z,7127
2022-08-07T10:22:17.335Z,7301
2022-08-07T10:23:26.507Z,7401
2022-08-07T10:24:35.677Z,7676
2022-08-07T10:25:44.845Z,7835
2022-08-07T10:26:54.048Z,8007
2022-08-07T10:28:03.204Z,7798
2022-08-07T10:29:12.362Z,7823
2022-08-07T10:30:21.544Z,7343
2022-08-07T10:31:30.734Z,7258
2022-08-07T10:32:38.904Z,7277
2022-08-07T10:33:48.070Z,7430
2022-08-07T10:34:57.247Z,7668
2022-08-07T10:36:06.413Z,7751
2022-08-07T10:37:15.614Z,7747
2022-08-07T10:38:24.759Z,7596
2022-08-07T10:39:33.941Z,7418
2022-08-07T10:40:43.120Z,7660
2022-08-07T10:41:52.308Z,7713
2022-08-07T10:43:01.491Z,7730
2022-08-07T10:44:10.638Z,7543
2022-08-07T10:45:19.819Z,7672
2022-08-07T10:46:28.980Z,7654
2022-08-07T10:47:37.176Z,7641
2022-08-07T10:48:46.333Z,7835
2022-08-07T10:49:55.534Z,7787
2022-08-07T10:51:04.709Z,7871
2022-08-07T10:52:13.879Z,7970
2022-08-07T10:53:23.027Z,7840
2022-08-07T10:54:32.192Z,7720
2022-08-07T10:55:41.396Z,7757
2022-08-07T10:56:50.545Z,8072
2022-08-07T10:57:59.721Z,8042
2022-08-07T10:59:08.935Z,8025
2022-08-07T11:00:18.064Z,7971
2022-08-07T11:01:27.234Z,8102
2022-08-07T11:02:35.441Z,8185
2022-08-07T11:03:44.611Z,8475
2022-08-07T11:04:53.774Z,8680
2022-08-07T11:06:02.943Z,8078
2022-08-07T11:07:12.124Z,7872
2022-08-07T11:08:21.295Z,7927
2022-08-07T11:09:30.467Z,8025
2022-08-07T11:11:48.809Z,8578
2022-08-07T11:12:57.982Z,8453
2022-08-07T11:14:07.151Z,8228
2022-08-07T11:15:16.317Z,8231
2022-08-07T11:16:25.507Z,8325
2022-08-07T11:17:33.685Z,8317
2022-08-07T11:18:42.849Z,8401
2022-08-07T11:21:01.197Z,8623
2022-08-07T11:22:10.400Z,8859
2022-08-07T11:23:19.554Z,9070
2022-08-07T11:24:28.727Z,9083
2022-08-07T11:25:37.908Z,8795
2022-08-07T11:26:47.084Z,8489
2022-08-07T11:27:56.244Z,8557
2022-08-07T11:29:05.412Z,8593
2022-08-07T11:30:14.587Z,8825
2022-08-07T11:31:23.760Z,11280
2022-08-07T11:32:31.951Z,10683
2022-08-07T11:33:41.130Z,8998
2022-08-07T11:34:50.309Z,7289
2022-08-07T11:35:59.461Z,7613
2022-08-07T11:37:08.641Z,7299
2022-08-07T11:38:17.835Z,7070
2022-08-07T11:39:26.970Z,7083
2022-08-07T11:40:36.148Z,7024
2022-08-07T11:41:45.329Z,6786
2022-08-07T11:42:54.512Z,6749
2022-08-07T11:44:03.664Z,6474
2022-08-07T11:45:12.864Z,2323
2022-08-07T11:46:22.019Z,8547
2022-08-07T11:47:30.220Z,8962
2022-08-07T11:48:39.400Z,8714
2022-08-07T11:49:48.539Z,8850
2022-08-07T11:50:57.741Z,8913
2022-08-07T11:52:06.907Z,8689
2022-08-07T11:53:16.095Z,8650
2022-08-07T11:54:25.242Z,8889
2022-08-07T11:55:34.420Z,9046
2022-08-07T11:56:43.601Z,9122
2022-08-07T11:57:52.789Z,9226
2022-08-07T11:59:01.948Z,9315
2022-08-07T12:00:11.097Z,9805
2022-08-07T12:01:20.294Z,10183
2022-08-07T12:02:28.468Z,10414
2022-08-07T12:03:37.628Z,10605
2022-08-07T12:04:46.831Z,10514
2022-08-07T12:05:55.993Z,11059
2022-08-07T12:07:05.155Z,10950
2022-08-07T12:08:14.325Z,10712
2022-08-07T12:09:23.493Z,11320
2022-08-07T12:10:32.672Z,11734
2022-08-07T12:11:41.846Z,11212
2022-08-07T12:12:51.051Z,11505
2022-08-07T12:14:00.201Z,11503
2022-08-07T12:15:09.378Z,11305
2022-08-07T12:16:18.537Z,11693
2022-08-07T12:17:26.730Z,15315
2022-08-07T12:18:35.908Z,16730
2022-08-07T12:19:45.096Z,11926
2022-08-07T12:20:54.227Z,18529
2022-08-07T12:22:03.420Z,20944
2022-08-07T12:23:11.600Z,15271
2022-08-07T12:24:20.766Z,14671
2022-08-07T12:25:29.959Z,15879
2022-08-07T12:26:39.115Z,16977
2022-08-07T12:27:48.288Z,18559
2022-08-07T12:28:57.472Z,13775
2022-08-07T12:30:06.637Z,19003
2022-08-07T12:31:15.802Z,19487
2022-08-07T12:32:24.981Z,16099
2022-08-07T12:33:34.163Z,13495
2022-08-07T12:34:43.352Z,12453
2022-08-07T12:35:52.494Z,12491
2022-08-07T12:37:01.673Z,15693
2022-08-07T12:38:09.867Z,6966
2022-08-07T12:39:19.028Z,12302
2022-08-07T12:40:28.214Z,11398
2022-08-07T12:41:37.386Z,15315
2022-08-07T12:42:46.569Z,14963
2022-08-07T12:43:55.738Z,17725
2022-08-07T12:45:04.908Z,15841
2022-08-07T12:46:14.077Z,16952
2022-08-07T12:47:23.260Z,15016
2022-08-07T12:48:32.426Z,15905
2022-08-07T12:49:41.591Z,16141
2022-08-07T12:50:50.773Z,18415
2022-08-07T12:51:59.940Z,18349
2022-08-07T12:53:08.146Z,17182
2022-08-07T12:54:17.286Z,16689
2022-08-07T12:55:26.459Z,18908
2022-08-07T12:56:35.648Z,19659
2022-08-07T12:57:44.823Z,16756
2022-08-07T12:58:54.004Z,17863
2022-08-07T13:00:03.149Z,25054
2022-08-07T13:01:12.322Z,18022
2022-08-07T13:03:30.677Z,23536
2022-08-07T13:04:39.851Z,22376
2022-08-07T13:05:49.015Z,26948
2022-08-07T13:06:58.181Z,31738
2022-08-07T13:09:15.552Z,28587
2022-08-07T13:10:24.722Z,19420
2022-08-07T13:11:33.903Z,28189
2022-08-07T13:12:43.066Z,38160
2022-08-07T13:13:52.266Z,25880
2022-08-07T13:15:01.425Z,17242
2022-08-07T13:16:10.581Z,4810
2022-08-07T13:17:19.770Z,55524
2022-08-07T13:18:28.936Z,36502
2022-08-07T13:19:38.106Z,20105
2022-08-07T13:20:47.306Z,21481
2022-08-07T13:21:56.451Z,20833
2022-08-07T13:23:04.639Z,19338
2022-08-07T13:24:13.832Z,18048
2022-08-07T13:25:22.983Z,17862
2022-08-07T13:26:32.160Z,18729
2022-08-07T13:27:41.335Z,17627
2022-08-07T13:28:50.516Z,16542
2022-08-07T13:29:59.704Z,16231
2022-08-07T13:31:08.844Z,9768
2022-08-07T13:32:18.024Z,18188
2022-08-07T13:33:27.196Z,53198
2022-08-07T13:34:36.367Z,54331
2022-08-07T13:35:45.541Z,65521
2022-08-07T13:36:54.725Z,5435
2022-08-07T13:38:02.922Z,4188
2022-08-07T13:39:12.078Z,57627
2022-08-07T13:40:21.261Z,10110
2022-08-07T13:41:30.429Z,7996
2022-08-07T13:42:39.608Z,6759
2022-08-07T13:43:48.752Z,14091
2022-08-07T13:44:57.944Z,64738
2022-08-07T13:46:07.110Z,20557
2022-08-07T13:47:16.295Z,18657
2022-08-07T13:48:25.450Z,13802
2022-08-07T13:49:34.625Z,9866
2022-08-07T13:50:43.816Z,3816
2022-08-07T13:51:52.971Z,11834
2022-08-07T13:53:01.183Z,48974
2022-08-07T13:54:10.327Z,17415
2022-08-07T13:55:19.527Z,20203
2022-08-07T13:56:28.681Z,17777
2022-08-07T13:57:37.859Z,17397
2022-08-07T13:58:47.019Z,21671
2022-08-07T13:59:56.194Z,21322
2022-08-07T14:01:05.369Z,20218
2022-08-07T14:02:14.559Z,18389
2022-08-07T14:03:23.710Z,22331
2022-08-07T14:04:32.894Z,18466
2022-08-07T14:05:42.062Z,25716
2022-08-07T14:06:51.234Z,26411
2022-08-07T14:07:59.412Z,20048
2022-08-07T14:09:08.615Z,13896
2022-08-07T14:10:17.764Z,18981
2022-08-07T14:11:26.950Z,58533
2022-08-07T14:12:36.128Z,23456
2022-08-07T14:13:45.297Z,20145
2022-08-07T14:14:54.449Z,19469
2022-08-07T14:16:03.651Z,21918
2022-08-07T14:17:12.812Z,22555
2022-08-07T14:18:21.977Z,18863
2022-08-07T14:19:31.143Z,27878
2022-08-07T14:20:40.326Z,28792
2022-08-07T14:21:49.498Z,19515
2022-08-07T14:22:57.714Z,25314
2022-08-07T14:24:06.860Z,22678
2022-08-07T14:25:16.048Z,21110
2022-08-07T14:26:25.203Z,25843
2022-08-07T14:27:34.374Z,25091
2022-08-07T14:28:43.552Z,25524
2022-08-07T14:29:52.730Z,31289
2022-08-07T14:31:01.931Z,25625
2022-08-07T14:32:10.087Z,22334
2022-08-07T14:33:18.284Z,29976
2022-08-07T14:34:27.448Z,29415
2022-08-07T14:35:36.629Z,29736
2022-08-07T14:36:45.791Z,22161
2022-08-07T14:37:54.967Z,30680
2022-08-07T14:39:04.159Z,29780
2022-08-07T14:40:13.309Z,22457
2022-08-07T14:41:22.486Z,27092
2022-08-07T14:42:31.662Z,31680
2022-08-07T14:43:39.874Z,25687
2022-08-07T14:44:48.059Z,27630
2022-08-07T14:45:57.229Z,32945
2022-08-07T14:47:06.397Z,28710
2022-08-07T14:48:15.563Z,23616
2022-08-07T14:49:24.730Z,27635
2022-08-07T14:50:33.938Z,27335
2022-08-07T14:51:43.086Z,27221
2022-08-07T14:52:52.270Z,35026
2022-08-07T14:54:01.427Z,35430
2022-08-07T14:55:10.597Z,30645
2022-08-07T14:56:19.766Z,35844
2022-08-07T14:57:28.939Z,33257
2022-08-07T14:58:38.121Z,30775
2022-08-07T14:59:46.302Z,31163
2022-08-07T15:00:55.489Z,29953
2022-08-07T15:02:04.666Z,31053
2022-08-07T15:03:13.825Z,35947
2022-08-07T15:04:22.998Z,34557
2022-08-07T15:05:32.182Z,33813
2022-08-07T15:06:41.372Z,30946
2022-08-07T15:07:50.530Z,29548
2022-08-07T15:08:59.701Z,34863
2022-08-07T15:10:08.872Z,31237
2022-08-07T15:11:18.054Z,32305
2022-08-07T15:12:27.221Z,33630
2022-08-07T15:13:36.394Z,29657
2022-08-07T15:14:44.574Z,31178
2022-08-07T15:15:53.763Z,28127
2022-08-07T15:17:02.920Z,32272
2022-08-07T15:18:12.096Z,27019
2022-08-07T15:19:21.283Z,27783
2022-08-07T15:20:30.439Z,29195
2022-08-07T15:21:39.631Z,29558
2022-08-07T15:22:48.780Z,26350
2022-08-07T15:23:57.951Z,34486
2022-08-07T15:25:07.132Z,32089
2022-08-07T15:26:16.299Z,27698
2022-08-07T15:28:34.649Z,30406
2022-08-07T15:29:42.841Z,32433
2022-08-07T15:30:52.043Z,32776
2022-08-07T15:32:01.181Z,32516
2022-08-07T15:33:10.355Z,32161
2022-08-07T15:34:19.548Z,28856
2022-08-07T15:35:28.704Z,27705
2022-08-07T15:36:37.875Z,31712
2022-08-07T15:37:47.058Z,34407
2022-08-07T15:40:05.387Z,21178
2022-08-07T15:41:14.554Z,27637
2022-08-07T15:42:23.726Z,32329
2022-08-07T15:43:32.927Z,35689
2022-08-07T15:44:41.089Z,32029
2022-08-07T15:45:50.263Z,30363
2022-08-07T15:46:59.467Z,34832